Schneider, Indiana
Current Conditions -  °F | °C
As of 3:15 AM on Thursday 27 Nov 2014 (Local Time) from KRZL Reporting Station
Haze Haze  
Wind Chill: 21°   Ceiling: 2700
Heat Index: 28°   Visibility: 5mi
Dew Point: 28°   Wind: 7mph
Humidity: 100%   Direction: 290°WNW
Pressure: 30.21"   Gusts: NA
Location:  41.19°N, 87.45°W
Report Text: KRZL 270915Z AUTO 29006KT 5SM BR OVC027 M02/M02 A3021 RMK AO2
Loading
Personal Weather Stations






























Interactive Weather Map New forecast layout! Learn more

10-Day Weather Forecast

Advertisements
Track Severe Weather on mobile